Impacts METAR Board
IDs:

KCLL - College Station/East, TX, US

Updated at: 1300 UTC 14 Dec 2019
Potential Impact None Slight Moderate High
Time 14/01Z 14/02Z 14/03Z 14/04Z 14/05Z 14/06Z 14/07Z 14/08Z 14/09Z 14/10Z 14/11Z 14/12Z 14/13Z
Temp59 57 57 55 50 47 47 46 46 45 45 46 45
Dewpt45 45 46 45 44 43 43 41 42 41 41 43 42
Altim29.84 29.85 29.85 29.86 29.88 29.87 29.86 29.87 29.86 29.86 29.86 29.88 29.90
VIS10 10 10 10 10 10 10 10 10 10 10 8 8
CIG-- -- -- -- -- -- -- -- -- -- -- -- --
CoverCLRCLRCLRCLRCLRCLRCLRCLRCLRCLRCLRCLRCLR
FltCatVFRVFRVFRVFRVFRVFRVFRVFRVFRVFRVFRVFRVFR
WX--------------------------
WDir10102002302403600350001010
WSpd6 5 5 0 3 3 3 0 3 0 0 4 6
WGst-- -- -- -- -- -- -- -- -- -- -- -- --
Raw hourly METARs
KCLL 140053Z 01006KT 10SM CLR 15/07 A2984 RMK AO2 SLP102 T01500072
KCLL 140153Z 01005KT 10SM CLR 14/07 A2985 RMK AO2 SLP105 T01390072
KCLL 140253Z AUTO 02005KT 10SM CLR 14/08 A2985 RMK AO2 SLP106 T01390078 51009
KCLL 140353Z AUTO 00000KT 10SM CLR 13/07 A2986 RMK AO2 SLP108 T01280072
KCLL 140453Z AUTO 23003KT 10SM CLR 10/07 A2988 RMK AO2 SLP116 T01000067
KCLL 140553Z AUTO 24003KT 10SM CLR 08/06 A2987 RMK AO2 SLP113 T00830061 10167 20083 402280083 50006
KCLL 140653Z AUTO 36003KT 10SM CLR 08/06 A2986 RMK AO2 SLP110 T00830061
KCLL 140753Z AUTO 00000KT 10SM CLR 08/05 A2987 RMK AO2 SLP112 T00780050
KCLL 140853Z AUTO 35003KT 10SM CLR 08/06 A2986 RMK AO2 SLP108 T00780056 58003
KCLL 140953Z AUTO 00000KT 10SM CLR 07/05 A2986 RMK AO2 SLP110 T00720050
KCLL 141053Z AUTO 00000KT 10SM CLR 07/05 A2986 RMK AO2 SLP111 T00720050
KCLL 141153Z AUTO 01004KT 8SM CLR 08/06 A2988 RMK AO2 SLP118 T00780061 10089 20061 53008
KCLL 141253Z AUTO 01006KT 8SM CLR 07/06 A2990 RMK AO2 SLP124 T00720056



Page loaded:  13:50 UTC  |   05:50 AM Pacific  |   06:50 AM Mountain  |   07:50 AM Central  |   08:50 AM Eastern

 

ADVISORIES

FORECASTS

FORECASTS

OBSERVATIONS

USER TOOLS

ABOUT US